createdAt,value
2023-05-29T00:00:34.068Z,98377.94
2023-05-29T00:01:37.023Z,98387.47
2023-05-29T00:02:38.690Z,98376.03
2023-05-29T00:03:40.395Z,98364.88
2023-05-29T00:04:42.119Z,98374.66
2023-05-29T00:05:44.197Z,98390.78
2023-05-29T00:06:45.838Z,98379.03
2023-05-29T00:07:47.398Z,98376.31
2023-05-29T00:08:48.964Z,98377.94
2023-05-29T00:09:50.673Z,98386.16
2023-05-29T00:10:52.240Z,98385.06
2023-05-29T00:11:54.142Z,98380.41
2023-05-29T00:12:57.207Z,98384.25
2023-05-29T00:13:58.958Z,98392.44
2023-05-29T00:15:01.237Z,98392.44
2023-05-29T00:16:04.584Z,98389.97
2023-05-29T00:17:07.182Z,98388.88
2023-05-29T00:18:08.955Z,98379.34
2023-05-29T00:19:10.554Z,98393.25
2023-05-29T00:20:13.118Z,98388.63
2023-05-29T00:21:15.072Z,98388.19
2023-05-29T00:22:16.741Z,98379.00
2023-05-29T00:23:18.298Z,98381.78
2023-05-29T00:24:21.227Z,98385.88
2023-05-29T00:25:22.674Z,98388.75
2023-05-29T00:26:24.215Z,98376.25
2023-05-29T00:27:25.800Z,98386.78
2023-05-29T00:28:27.553Z,98373.97
2023-05-29T00:29:30.122Z,98379.47
2023-05-29T00:30:31.746Z,98370.44
2023-05-29T00:31:33.377Z,98387.91
2023-05-29T00:32:35.002Z,98372.63
2023-05-29T00:33:36.575Z,98372.13
2023-05-29T00:34:38.463Z,98386.88
2023-05-29T00:35:40.006Z,98374.84
2023-05-29T00:36:41.583Z,98362.56
2023-05-29T00:37:43.116Z,98381.13
2023-05-29T00:38:44.666Z,98380.59
2023-05-29T00:39:46.320Z,98377.03
2023-05-29T00:40:47.923Z,98365.59
2023-05-29T00:41:52.115Z,98368.03
2023-05-29T00:42:53.738Z,98363.66
2023-05-29T00:43:55.362Z,98375.69
2023-05-29T00:44:57.223Z,98366.41
2023-05-29T00:45:58.868Z,98365.00
2023-05-29T00:47:00.448Z,98375.94
2023-05-29T00:48:02.168Z,98378.94
2023-05-29T00:49:03.781Z,98373.75
2023-05-29T00:50:06.199Z,98385.78
2023-05-29T00:51:07.883Z,98378.69
2023-05-29T00:52:09.619Z,98380.84
2023-05-29T00:53:14.084Z,98366.66
2023-05-29T00:54:17.915Z,98360.94
2023-05-29T00:55:19.714Z,98381.66
2023-05-29T00:56:21.909Z,98377.31
2023-05-29T00:57:23.789Z,98392.88
2023-05-29T00:58:25.501Z,98386.31
2023-05-29T00:59:31.550Z,98390.69
2023-05-29T01:00:34.326Z,98385.22
2023-05-29T01:01:36.853Z,98393.97
2023-05-29T01:02:38.724Z,98363.66
2023-05-29T01:03:41.289Z,98396.69
2023-05-29T01:04:51.695Z,98382.50
2023-05-29T01:05:53.309Z,98380.31
2023-05-29T01:06:54.924Z,98380.03
2023-05-29T01:07:56.462Z,98393.41
2023-05-29T01:08:58.008Z,98379.47
2023-05-29T01:09:59.921Z,98392.28
2023-05-29T01:11:19.142Z,98398.56
2023-05-29T01:12:25.162Z,98392.53
2023-05-29T01:13:29.151Z,98388.47
2023-05-29T01:14:33.491Z,98395.03
2023-05-29T01:15:50.229Z,98400.22
2023-05-29T01:17:04.449Z,98387.38
2023-05-29T01:18:21.597Z,98387.41
2023-05-29T01:19:55.303Z,98379.19
2023-05-29T01:21:04.621Z,98386.25
2023-05-29T01:22:17.469Z,98396.34
2023-05-29T01:23:51.836Z,98393.09
2023-05-29T01:25:00.072Z,98402.38
2023-05-29T01:26:02.197Z,98401.00
2023-05-29T01:27:07.371Z,98387.34
2023-05-29T01:28:08.989Z,98380.22
2023-05-29T01:29:11.974Z,98390.91
2023-05-29T01:30:13.877Z,98389.81
2023-05-29T01:31:17.473Z,98393.91
2023-05-29T01:32:19.072Z,98387.06
2023-05-29T01:33:20.755Z,98387.06
2023-05-29T01:34:22.383Z,98392.81
2023-05-29T01:35:23.975Z,98383.25
2023-05-29T01:36:25.666Z,98386.78
2023-05-29T01:37:28.450Z,98382.44
2023-05-29T01:38:30.068Z,98398.28
2023-05-29T01:39:33.074Z,98401.84
2023-05-29T01:40:35.043Z,98387.06
2023-05-29T01:41:36.675Z,98397.69
2023-05-29T01:42:38.207Z,98398.25
2023-05-29T01:43:39.745Z,98398.78
2023-05-29T01:44:41.334Z,98387.31
2023-05-29T01:45:42.941Z,98379.66
2023-05-29T01:46:44.809Z,98384.53
2023-05-29T01:47:46.939Z,98393.28
2023-05-29T01:48:48.580Z,98389.94
2023-05-29T01:49:50.112Z,98377.88
2023-05-29T01:50:51.765Z,98366.13
2023-05-29T01:51:53.429Z,98383.34
2023-05-29T01:52:55.053Z,98388.25
2023-05-29T01:53:56.606Z,98384.19
2023-05-29T01:54:58.136Z,98372.69
2023-05-29T01:55:59.701Z,98386.91
2023-05-29T01:57:03.300Z,98380.09
2023-05-29T01:58:04.863Z,98379.56
2023-05-29T01:59:06.992Z,98363.19
2023-05-29T02:00:10.269Z,98377.63
2023-05-29T02:01:12.580Z,98374.59
2023-05-29T02:02:14.320Z,98368.84
2023-05-29T02:03:15.965Z,98373.81
2023-05-29T02:04:17.645Z,98379.50
2023-05-29T02:05:19.379Z,98363.66
2023-05-29T02:06:21.577Z,98365.28
2023-05-29T02:07:23.282Z,98383.81
2023-05-29T02:08:24.880Z,98373.44
2023-05-29T02:09:26.907Z,98362.53
2023-05-29T02:10:28.519Z,98381.41
2023-05-29T02:11:30.473Z,98366.09
2023-05-29T02:12:32.232Z,98383.81
2023-05-29T02:13:33.796Z,98364.44
2023-05-29T02:14:35.390Z,98380.78
2023-05-29T02:15:36.974Z,98369.59
2023-05-29T02:16:42.075Z,98361.69
2023-05-29T02:17:43.785Z,98376.72
2023-05-29T02:18:45.491Z,98381.78
2023-05-29T02:19:47.361Z,98374.94
2023-05-29T02:20:49.192Z,98374.44
2023-05-29T02:21:50.913Z,98362.94
2023-05-29T02:22:52.495Z,98360.81
2023-05-29T02:23:54.164Z,98374.19
2023-05-29T02:24:55.961Z,98361.34
2023-05-29T02:25:57.677Z,98366.31
2023-05-29T02:26:59.305Z,98361.94
2023-05-29T02:28:00.896Z,98344.47
2023-05-29T02:29:02.466Z,98360.88
2023-05-29T02:30:04.360Z,98356.19
2023-05-29T02:31:06.392Z,98367.97
2023-05-29T02:32:08.183Z,98342.25
2023-05-29T02:33:10.007Z,98355.09
2023-05-29T02:34:11.641Z,98365.75
2023-05-29T02:35:16.104Z,98353.94
2023-05-29T02:36:18.413Z,98358.09
2023-05-29T02:37:20.048Z,98366.25
2023-05-29T02:38:22.125Z,98368.41
2023-05-29T02:39:23.745Z,98359.91
2023-05-29T02:40:25.532Z,98362.38
2023-05-29T02:41:27.713Z,98331.53
2023-05-29T02:42:29.282Z,98361.81
2023-05-29T02:43:30.904Z,98359.88
2023-05-29T02:44:32.471Z,98346.22
2023-05-29T02:45:34.031Z,98361.22
2023-05-29T02:46:35.966Z,98349.22
2023-05-29T02:47:37.744Z,98350.34
2023-05-29T02:48:39.309Z,98344.38
2023-05-29T02:49:40.895Z,98359.94
2023-05-29T02:50:42.482Z,98343.00
2023-05-29T02:51:44.128Z,98355.84
2023-05-29T02:52:45.689Z,98362.94
2023-05-29T02:53:47.272Z,98356.91
2023-05-29T02:54:48.874Z,98355.06
2023-05-29T02:55:52.354Z,98362.97
2023-05-29T02:56:54.337Z,98353.72
2023-05-29T02:57:57.024Z,98355.56
2023-05-29T02:58:58.631Z,98358.03
2023-05-29T03:00:00.420Z,98350.09
2023-05-29T03:01:03.717Z,98346.28
2023-05-29T03:02:05.754Z,98340.00
2023-05-29T03:03:07.551Z,98361.03
2023-05-29T03:04:10.898Z,98356.34
2023-05-29T03:05:12.687Z,98358.81
2023-05-29T03:06:14.273Z,98369.97
2023-05-29T03:07:16.181Z,98372.69
2023-05-29T03:08:18.966Z,98356.88
2023-05-29T03:09:23.344Z,98356.31
2023-05-29T03:10:27.777Z,98364.25
2023-05-29T03:11:30.012Z,98363.44
2023-05-29T03:12:31.896Z,98367.78
2023-05-29T03:13:35.631Z,98366.72
2023-05-29T03:14:38.024Z,98354.69
2023-05-29T03:15:39.592Z,98363.91
2023-05-29T03:16:41.745Z,98360.66
2023-05-29T03:17:43.638Z,98366.91
2023-05-29T03:18:45.235Z,98362.81
2023-05-29T03:19:46.841Z,98361.94
2023-05-29T03:20:49.237Z,98356.09
2023-05-29T03:21:51.381Z,98350.38
2023-05-29T03:22:53.147Z,98364.25
2023-05-29T03:23:54.875Z,98348.72
2023-05-29T03:24:56.450Z,98351.19
2023-05-29T03:25:58.069Z,98367.28
2023-05-29T03:26:59.639Z,98344.56
2023-05-29T03:28:01.306Z,98361.19
2023-05-29T03:29:02.924Z,98351.91
2023-05-29T03:30:04.776Z,98356.28
2023-05-29T03:31:06.402Z,98361.22
2023-05-29T03:32:07.984Z,98367.28
2023-05-29T03:33:09.616Z,98350.06
2023-05-29T03:34:11.259Z,98358.22
2023-05-29T03:35:12.849Z,98360.13
2023-05-29T03:36:14.434Z,98370.25
2023-05-29T03:37:16.134Z,98364.53
2023-05-29T03:38:17.726Z,98366.16
2023-05-29T03:39:19.364Z,98368.34
2023-05-29T03:40:21.161Z,98360.38
2023-05-29T03:41:22.775Z,98363.28
2023-05-29T03:42:24.364Z,98361.91
2023-05-29T03:43:25.947Z,98333.66
2023-05-29T03:44:27.516Z,98371.22
2023-05-29T03:45:29.104Z,98363.06
2023-05-29T03:46:30.991Z,98353.25
2023-05-29T03:47:32.955Z,98369.84
2023-05-29T03:48:34.611Z,98377.22
2023-05-29T03:49:36.182Z,98373.19
2023-05-29T03:50:37.772Z,98369.91
2023-05-29T03:51:39.346Z,98380.25
2023-05-29T03:52:40.941Z,98366.59
2023-05-29T03:53:42.540Z,98370.41
2023-05-29T03:54:45.898Z,98363.53
2023-05-29T03:55:47.438Z,98367.94
2023-05-29T03:56:49.030Z,98384.63
2023-05-29T03:57:50.780Z,98372.88
2023-05-29T03:58:52.348Z,98362.72
2023-05-29T03:59:53.920Z,98372.28
2023-05-29T04:00:55.570Z,98382.94
2023-05-29T04:01:57.213Z,98359.41
2023-05-29T04:02:58.944Z,98373.28
2023-05-29T04:04:00.959Z,98377.06
2023-05-29T04:05:02.684Z,98371.06
2023-05-29T04:06:04.440Z,98374.00
2023-05-29T04:07:06.243Z,98375.41
2023-05-29T04:09:16.110Z,98391.56
2023-05-29T04:10:17.751Z,98380.44
2023-05-29T04:11:21.905Z,98392.97
2023-05-29T04:12:23.939Z,98372.84
2023-05-29T04:13:25.522Z,98392.78
2023-05-29T04:14:27.092Z,98394.44
2023-05-29T04:15:29.137Z,98402.63
2023-05-29T04:16:30.942Z,98408.38
2023-05-29T04:17:32.710Z,98393.06
2023-05-29T04:18:34.363Z,98413.34
2023-05-29T04:19:36.037Z,98410.63
2023-05-29T04:20:37.710Z,98401.59
2023-05-29T04:21:39.339Z,98413.41
2023-05-29T04:22:41.223Z,98414.22
2023-05-29T04:23:42.789Z,98387.38
2023-05-29T04:24:44.477Z,98393.44
2023-05-29T04:25:46.103Z,98413.66
2023-05-29T04:26:47.810Z,98410.44
2023-05-29T04:27:52.105Z,98407.44
2023-05-29T04:28:58.104Z,98422.22
2023-05-29T04:29:59.877Z,98424.69
2023-05-29T04:31:01.703Z,98388.59
2023-05-29T04:32:04.397Z,98413.78
2023-05-29T04:33:06.313Z,98408.34
2023-05-29T04:34:08.581Z,98415.97
2023-05-29T04:35:10.449Z,98418.84
2023-05-29T04:36:12.076Z,98424.03
2023-05-29T04:37:14.691Z,98427.34
2023-05-29T04:38:17.075Z,98416.13
2023-05-29T04:39:18.655Z,98418.38
2023-05-29T04:40:21.505Z,98428.22
2023-05-29T04:41:24.511Z,98436.94
2023-05-29T04:42:26.481Z,98428.97
2023-05-29T04:43:28.391Z,98430.81
2023-05-29T04:44:34.072Z,98430.50
2023-05-29T04:45:38.040Z,98438.94
2023-05-29T04:46:39.693Z,98431.28
2023-05-29T04:47:47.237Z,98430.88
2023-05-29T04:48:48.928Z,98438.06
2023-05-29T04:49:51.358Z,98432.91
2023-05-29T04:50:53.119Z,98434.50
2023-05-29T04:51:54.832Z,98431.56
2023-05-29T04:52:56.459Z,98430.81
2023-05-29T04:53:58.150Z,98435.44
2023-05-29T04:54:59.721Z,98441.75
2023-05-29T04:56:01.302Z,98442.31
2023-05-29T04:57:02.972Z,98452.69
2023-05-29T04:58:04.572Z,98439.88
2023-05-29T04:59:06.139Z,98449.47
2023-05-29T05:00:09.500Z,98452.22
2023-05-29T05:01:15.244Z,98443.25
2023-05-29T05:02:16.806Z,98452.88
2023-05-29T05:03:18.483Z,98452.59
2023-05-29T05:04:20.251Z,98453.69
2023-05-29T05:05:22.159Z,98441.69
2023-05-29T05:06:23.719Z,98456.75
2023-05-29T05:07:25.512Z,98460.31
2023-05-29T05:08:27.401Z,98467.66
2023-05-29T05:09:28.961Z,98449.41
2023-05-29T05:10:30.695Z,98454.31
2023-05-29T05:11:32.339Z,98450.22
2023-05-29T05:12:34.493Z,98448.31
2023-05-29T05:13:36.604Z,98457.31
2023-05-29T05:14:38.625Z,98458.75
2023-05-29T05:15:40.298Z,98461.50
2023-05-29T05:16:41.901Z,98463.44
2023-05-29T05:17:43.665Z,98462.06
2023-05-29T05:18:48.282Z,98464.03
2023-05-29T05:19:50.554Z,98467.56
2023-05-29T05:20:52.380Z,98467.28
2023-05-29T05:21:54.129Z,98470.34
2023-05-29T05:22:57.017Z,98467.03
2023-05-29T05:23:59.153Z,98483.53
2023-05-29T05:25:01.648Z,98475.06
2023-05-29T05:26:03.795Z,98485.41
2023-05-29T05:27:08.509Z,98443.88
2023-05-29T05:28:10.845Z,98489.78
2023-05-29T05:29:12.517Z,98488.44
2023-05-29T05:30:14.394Z,98473.41
2023-05-29T05:31:16.302Z,98477.78
2023-05-29T05:32:17.918Z,98481.91
2023-05-29T05:33:19.547Z,98480.00
2023-05-29T05:34:21.499Z,98488.47
2023-05-29T05:35:23.134Z,98477.00
2023-05-29T05:36:24.745Z,98481.41
2023-05-29T05:37:26.906Z,98480.31
2023-05-29T05:38:28.832Z,98480.28
2023-05-29T05:39:30.715Z,98486.31
2023-05-29T05:40:32.358Z,98480.31
2023-05-29T05:41:33.947Z,98484.69
2023-05-29T05:42:35.550Z,98482.22
2023-05-29T05:43:37.307Z,98487.41
2023-05-29T05:44:38.881Z,98488.47
2023-05-29T05:45:43.272Z,98472.09
2023-05-29T05:46:45.001Z,98477.56
2023-05-29T05:47:47.547Z,98482.47
2023-05-29T05:48:49.289Z,98487.13
2023-05-29T05:49:52.569Z,98479.72
2023-05-29T05:50:54.299Z,98496.13
2023-05-29T05:51:56.049Z,98498.31
2023-05-29T05:52:58.026Z,98484.09
2023-05-29T05:53:59.799Z,98500.47
2023-05-29T05:55:01.380Z,98494.44
2023-05-29T05:56:03.036Z,98478.06
2023-05-29T05:57:04.814Z,98483.50
2023-05-29T05:58:06.680Z,98482.69
2023-05-29T05:59:08.333Z,98482.94
2023-05-29T06:00:13.992Z,98486.75
2023-05-29T06:01:16.150Z,98494.69
2023-05-29T06:02:17.797Z,98488.94
2023-05-29T06:03:19.721Z,98491.91
2023-05-29T06:04:21.822Z,98489.44
2023-05-29T06:05:23.384Z,98490.00
2023-05-29T06:06:25.238Z,98493.50
2023-05-29T06:07:27.057Z,98484.47
2023-05-29T06:08:28.981Z,98492.66
2023-05-29T06:09:30.510Z,98503.84
2023-05-29T06:10:32.075Z,98500.56
2023-05-29T06:11:33.668Z,98503.50
2023-05-29T06:12:35.979Z,98504.59
2023-05-29T06:13:37.953Z,98497.97
2023-05-29T06:14:42.443Z,98470.94
2023-05-29T06:15:44.748Z,98396.19
2023-05-29T06:16:51.748Z,98469.28
2023-05-29T06:17:54.123Z,98415.56
2023-05-29T06:18:56.517Z,98477.44
2023-05-29T06:19:58.072Z,98503.63
2023-05-29T06:20:59.970Z,98478.75
2023-05-29T06:22:02.064Z,98462.88
2023-05-29T06:23:03.668Z,98486.66
2023-05-29T06:24:05.376Z,98493.19
2023-05-29T06:25:09.522Z,98479.25
2023-05-29T06:26:13.491Z,98476.75
2023-05-29T06:27:15.100Z,98491.75
2023-05-29T06:28:16.831Z,98491.75
2023-05-29T06:29:18.531Z,98486.50
2023-05-29T06:30:20.120Z,98496.84
2023-05-29T06:31:21.780Z,98496.00
2023-05-29T06:32:23.385Z,98499.25
2023-05-29T06:33:25.371Z,98500.81
2023-05-29T06:34:27.236Z,98491.47
2023-05-29T06:35:28.790Z,98489.84
2023-05-29T06:36:30.334Z,98504.81
2023-05-29T06:37:31.940Z,98494.91
2023-05-29T06:38:33.497Z,98489.19
2023-05-29T06:39:35.064Z,98502.88
2023-05-29T06:40:36.630Z,98492.72
2023-05-29T06:41:38.219Z,98510.47
2023-05-29T06:42:39.843Z,98506.56
2023-05-29T06:43:42.874Z,98497.00
2023-05-29T06:44:45.996Z,98500.50
2023-05-29T06:45:47.558Z,98490.94
2023-05-29T06:46:49.155Z,98488.41
2023-05-29T06:47:50.916Z,98490.06
2023-05-29T06:48:52.503Z,98512.13
2023-05-29T06:49:54.119Z,98512.34
2023-05-29T06:50:55.941Z,98498.06
2023-05-29T06:51:57.654Z,98486.03
2023-05-29T06:52:59.263Z,98510.34
2023-05-29T06:54:01.101Z,98501.50
2023-05-29T06:55:03.177Z,98491.41
2023-05-29T06:56:05.590Z,98500.69
2023-05-29T06:57:11.120Z,98504.94
2023-05-29T06:58:13.364Z,98492.56
2023-05-29T06:59:15.325Z,98490.34
2023-05-29T07:00:18.583Z,98501.72
2023-05-29T07:01:20.430Z,98503.00
2023-05-29T07:02:22.082Z,98509.25
2023-05-29T07:03:23.865Z,98495.81
2023-05-29T07:04:25.753Z,98502.00
2023-05-29T07:05:28.052Z,98501.59
2023-05-29T07:06:29.753Z,98502.25
2023-05-29T07:07:31.395Z,98519.94
2023-05-29T07:08:32.972Z,98501.81
2023-05-29T07:09:34.702Z,98512.50
2023-05-29T07:10:40.318Z,98498.47
2023-05-29T07:11:41.893Z,98509.47
2023-05-29T07:12:46.404Z,98502.72
2023-05-29T07:13:47.968Z,98509.38
2023-05-29T07:14:51.709Z,98498.91
2023-05-29T07:15:53.301Z,98500.31
2023-05-29T07:16:54.997Z,98499.13
2023-05-29T07:17:56.708Z,98512.06
2023-05-29T07:18:58.316Z,98493.38
2023-05-29T07:20:00.069Z,98500.47
2023-05-29T07:21:02.092Z,98505.09
2023-05-29T07:22:03.974Z,98498.34
2023-05-29T07:23:05.577Z,98506.56
2023-05-29T07:24:07.271Z,98501.84
2023-05-29T07:25:09.213Z,98504.63
2023-05-29T07:26:11.093Z,98495.38
2023-05-29T07:27:12.667Z,98505.06
2023-05-29T07:28:22.148Z,98510.16
2023-05-29T07:29:24.834Z,98502.47
2023-05-29T07:30:26.501Z,98513.06
2023-05-29T07:31:28.151Z,98502.25
2023-05-29T07:32:29.835Z,98510.81
2023-05-29T07:33:31.546Z,98506.22
2023-05-29T07:34:33.497Z,98513.47
2023-05-29T07:35:35.079Z,98507.03
2023-05-29T07:36:37.133Z,98505.59
2023-05-29T07:37:38.769Z,98506.78
2023-05-29T07:38:40.464Z,98501.19
2023-05-29T07:39:42.599Z,98515.84
2023-05-29T07:40:44.212Z,98510.44
2023-05-29T07:41:45.836Z,98510.53
2023-05-29T07:42:47.506Z,98508.28
2023-05-29T07:43:53.041Z,98503.66
2023-05-29T07:44:54.965Z,98502.59
2023-05-29T07:45:56.573Z,98505.84
2023-05-29T07:46:58.258Z,98505.53
2023-05-29T07:47:59.867Z,98506.72
2023-05-29T07:49:01.655Z,98504.09
2023-05-29T07:50:03.318Z,98504.91
2023-05-29T07:51:05.788Z,98502.22
2023-05-29T07:52:07.444Z,98490.63
2023-05-29T07:53:08.971Z,98506.94
2023-05-29T07:54:10.769Z,98503.84
2023-05-29T07:55:12.395Z,98496.81
2023-05-29T07:56:14.645Z,98507.91
2023-05-29T07:57:16.248Z,98495.25
2023-05-29T07:58:18.403Z,98499.31
2023-05-29T07:59:19.968Z,98508.16
2023-05-29T08:00:21.707Z,98502.75
2023-05-29T08:01:23.315Z,98496.56
2023-05-29T08:02:25.001Z,98497.47
2023-05-29T08:03:27.156Z,98500.88
2023-05-29T08:04:28.929Z,98516.41
2023-05-29T08:05:30.730Z,98500.13
2023-05-29T08:06:35.488Z,98505.81
2023-05-29T08:07:37.814Z,98492.31
2023-05-29T08:08:39.395Z,98501.81
2023-05-29T08:09:41.145Z,98503.16
2023-05-29T08:10:42.752Z,98509.00
2023-05-29T08:11:46.394Z,98503.47
2023-05-29T08:12:48.094Z,98510.19
2023-05-29T08:13:49.678Z,98507.50
2023-05-29T08:14:51.939Z,98516.94
2023-05-29T08:15:53.740Z,98509.13
2023-05-29T08:16:55.635Z,98491.31
2023-05-29T08:17:57.316Z,98498.69
2023-05-29T08:18:58.949Z,98506.34
2023-05-29T08:20:01.263Z,98496.19
2023-05-29T08:21:03.667Z,98501.56
2023-05-29T08:22:05.500Z,98488.72
2023-05-29T08:23:07.127Z,98500.00
2023-05-29T08:24:09.717Z,98480.16
2023-05-29T08:25:11.343Z,98501.38
2023-05-29T08:26:14.268Z,98499.09
2023-05-29T08:27:18.359Z,98480.03
2023-05-29T08:28:19.969Z,98495.19
2023-05-29T08:29:21.631Z,98481.16
2023-05-29T08:30:23.254Z,98494.38
2023-05-29T08:31:26.669Z,98489.00
2023-05-29T08:32:28.496Z,98496.19
2023-05-29T08:33:31.649Z,98500.09
2023-05-29T08:34:33.373Z,98502.22
2023-05-29T08:35:35.167Z,98495.88
2023-05-29T08:36:36.773Z,98507.28
2023-05-29T08:37:38.371Z,98490.22
2023-05-29T08:38:40.010Z,98486.78
2023-05-29T08:39:42.157Z,98487.94
2023-05-29T08:40:43.800Z,98503.75
2023-05-29T08:41:52.331Z,98501.16
2023-05-29T08:43:16.755Z,98491.88
2023-05-29T08:44:18.942Z,98493.97
2023-05-29T08:45:20.725Z,98502.28
2023-05-29T08:46:22.382Z,98488.78
2023-05-29T08:47:24.239Z,98490.72
2023-05-29T08:48:26.460Z,98481.28
2023-05-29T08:49:30.808Z,98476.25
2023-05-29T08:50:32.401Z,98470.91
2023-05-29T08:51:35.590Z,98498.03
2023-05-29T08:52:37.355Z,98494.13
2023-05-29T08:53:40.009Z,98484.06
2023-05-29T08:54:47.320Z,98489.91
2023-05-29T08:55:49.494Z,98506.19
2023-05-29T08:56:51.100Z,98474.78
2023-05-29T08:57:52.694Z,98483.19
2023-05-29T08:58:54.385Z,98491.00
2023-05-29T08:59:56.018Z,98464.00
2023-05-29T09:00:57.868Z,98481.25
2023-05-29T09:01:59.743Z,98485.16
2023-05-29T09:03:04.431Z,98467.41
2023-05-29T09:04:06.305Z,98489.88
2023-05-29T09:05:08.295Z,98484.34
2023-05-29T09:06:10.166Z,98481.41
2023-05-29T09:07:13.849Z,98477.34
2023-05-29T09:08:16.263Z,98475.75
2023-05-29T09:09:21.654Z,98461.72
2023-05-29T09:10:29.113Z,98477.72
2023-05-29T09:11:30.702Z,98480.78
2023-05-29T09:12:32.570Z,98470.06
2023-05-29T09:13:34.117Z,98476.06
2023-05-29T09:14:40.654Z,98473.75
2023-05-29T09:15:44.727Z,98476.53
2023-05-29T09:16:46.846Z,98478.31
2023-05-29T09:17:56.075Z,98481.75
2023-05-29T09:19:06.612Z,98474.13
2023-05-29T09:20:16.715Z,98476.41
2023-05-29T09:21:28.487Z,98469.59
2023-05-29T09:22:30.166Z,98463.50
2023-05-29T09:23:31.809Z,98486.31
2023-05-29T09:24:34.059Z,98468.41
2023-05-29T09:25:37.046Z,98475.56
2023-05-29T09:26:38.639Z,98474.91
2023-05-29T09:27:40.455Z,98471.00
2023-05-29T09:28:42.330Z,98456.53
2023-05-29T09:29:45.011Z,98480.78
2023-05-29T09:30:48.133Z,98487.44
2023-05-29T09:31:49.850Z,98478.66
2023-05-29T09:32:54.588Z,98477.84
2023-05-29T09:33:56.423Z,98474.56
2023-05-29T09:34:58.739Z,98494.75
2023-05-29T09:36:00.766Z,98495.25
2023-05-29T09:37:09.755Z,98476.53
2023-05-29T09:38:20.485Z,98477.34
2023-05-29T09:39:30.611Z,98494.13
2023-05-29T09:40:36.671Z,98484.50
2023-05-29T09:41:47.525Z,98493.94
2023-05-29T09:42:52.054Z,98493.44
2023-05-29T09:43:55.916Z,98498.81
2023-05-29T09:45:00.820Z,98496.56
2023-05-29T09:46:03.348Z,98495.09
2023-05-29T09:47:05.778Z,98485.03
2023-05-29T09:48:08.441Z,98489.56
2023-05-29T09:49:19.205Z,98500.03
2023-05-29T09:50:23.952Z,98491.22
2023-05-29T09:51:27.102Z,98465.81
2023-05-29T09:52:31.294Z,98495.94
2023-05-29T09:53:33.078Z,98489.75
2023-05-29T09:54:39.282Z,98472.16
2023-05-29T09:55:41.159Z,98476.56
2023-05-29T09:56:43.822Z,98489.91
2023-05-29T09:57:47.541Z,98489.41
2023-05-29T09:58:49.755Z,98485.66
2023-05-29T09:59:54.289Z,98486.00
2023-05-29T10:00:59.621Z,98486.78
2023-05-29T10:02:04.978Z,98488.59
2023-05-29T10:03:07.000Z,98482.75
2023-05-29T10:04:11.586Z,98494.25
2023-05-29T10:05:16.651Z,98485.03
2023-05-29T10:06:19.454Z,98482.44
2023-05-29T10:07:23.310Z,98482.69
2023-05-29T10:08:25.278Z,98467.09
2023-05-29T10:09:26.928Z,98481.22
2023-05-29T10:10:28.491Z,98471.78
2023-05-29T10:11:30.306Z,98469.50
2023-05-29T10:12:37.950Z,98478.41
2023-05-29T10:13:40.071Z,98480.03
2023-05-29T10:14:44.192Z,98477.75
2023-05-29T10:15:46.648Z,98470.59
2023-05-29T10:16:48.507Z,98471.41
2023-05-29T10:18:05.514Z,98464.72
2023-05-29T10:19:08.604Z,98475.94
2023-05-29T10:20:10.574Z,98474.47
2023-05-29T10:21:13.048Z,98474.94
2023-05-29T10:22:14.667Z,98464.69
2023-05-29T10:23:16.227Z,98467.59
2023-05-29T10:24:18.136Z,98466.59
2023-05-29T10:25:20.887Z,98467.56
2023-05-29T10:26:23.589Z,98471.28
2023-05-29T10:27:25.184Z,98465.69
2023-05-29T10:28:26.739Z,98477.75
2023-05-29T10:29:29.740Z,98476.28
2023-05-29T10:30:46.918Z,98472.69
2023-05-29T10:32:00.077Z,98469.69
2023-05-29T10:33:07.714Z,98473.44
2023-05-29T10:34:33.251Z,98471.97
2023-05-29T10:35:41.084Z,98455.00
2023-05-29T10:36:48.254Z,98450.19
2023-05-29T10:38:04.082Z,98465.28
2023-05-29T10:39:05.981Z,98445.22
2023-05-29T10:40:14.273Z,98454.03
2023-05-29T10:41:27.677Z,98462.22
2023-05-29T10:42:50.539Z,98461.34
2023-05-29T10:44:00.570Z,98459.50
2023-05-29T10:45:02.128Z,98453.03
2023-05-29T10:46:03.981Z,98460.00
2023-05-29T10:47:06.632Z,98454.66
2023-05-29T10:48:08.183Z,98456.28
2023-05-29T10:49:20.132Z,98460.81
2023-05-29T10:50:46.756Z,98464.31
2023-05-29T10:51:49.422Z,98453.44
2023-05-29T10:52:51.222Z,98460.16
2023-05-29T10:53:53.107Z,98454.25
2023-05-29T10:54:55.965Z,98466.66
2023-05-29T10:55:58.128Z,98454.00
2023-05-29T10:57:02.247Z,98476.38
2023-05-29T10:58:07.873Z,98469.00
2023-05-29T10:59:09.802Z,98442.34
2023-05-29T11:00:16.380Z,98447.38
2023-05-29T11:01:18.788Z,98466.03
2023-05-29T11:02:21.596Z,98461.84
2023-05-29T11:03:25.084Z,98462.06
2023-05-29T11:04:27.617Z,98437.13
2023-05-29T11:05:29.319Z,98458.63
2023-05-29T11:06:30.886Z,98459.78
2023-05-29T11:07:36.402Z,98438.91
2023-05-29T11:08:48.399Z,98445.41
2023-05-29T11:09:51.322Z,98458.47
2023-05-29T11:10:55.936Z,98456.69
2023-05-29T11:12:13.858Z,98458.59
2023-05-29T11:13:29.617Z,98456.50
2023-05-29T11:14:31.287Z,98461.84
2023-05-29T11:15:32.895Z,98437.28
2023-05-29T11:16:36.968Z,98456.03
2023-05-29T11:17:38.529Z,98456.69
2023-05-29T11:18:45.532Z,98438.19
2023-05-29T11:19:47.220Z,98430.19
2023-05-29T11:20:53.981Z,98426.63
2023-05-29T11:22:10.390Z,98443.16
2023-05-29T11:23:18.393Z,98424.19
2023-05-29T11:24:27.219Z,98441.66
2023-05-29T11:25:29.180Z,98440.16
2023-05-29T11:26:31.225Z,98446.03
2023-05-29T11:27:33.171Z,98452.06
2023-05-29T11:28:34.905Z,98433.41
2023-05-29T11:29:36.679Z,98440.97
2023-05-29T11:30:45.379Z,98440.50
2023-05-29T11:31:47.045Z,98443.94
2023-05-29T11:32:49.166Z,98439.09
2023-05-29T11:33:51.782Z,98436.50
2023-05-29T11:34:53.462Z,98436.34
2023-05-29T11:35:59.138Z,98438.72
2023-05-29T11:37:01.636Z,98435.75
2023-05-29T11:38:04.403Z,98433.25
2023-05-29T11:39:06.512Z,98433.94
2023-05-29T11:40:12.160Z,98438.84
2023-05-29T11:41:14.990Z,98427.94
2023-05-29T11:42:17.460Z,98425.72
2023-05-29T11:43:19.434Z,98434.31
2023-05-29T11:44:21.847Z,98427.44
2023-05-29T11:45:24.499Z,98426.78
2023-05-29T11:46:27.574Z,98434.06
2023-05-29T11:47:29.221Z,98423.50
2023-05-29T11:48:30.872Z,98432.56
2023-05-29T11:49:34.204Z,98430.53
2023-05-29T11:50:38.344Z,98434.59
2023-05-29T11:51:42.875Z,98436.72
2023-05-29T11:52:47.584Z,98427.22
2023-05-29T11:53:49.432Z,98435.16
2023-05-29T11:54:51.453Z,98427.44
2023-05-29T11:55:53.241Z,98425.69
2023-05-29T11:56:54.914Z,98433.00
2023-05-29T11:58:03.484Z,98435.56
2023-05-29T11:59:08.857Z,98436.94
2023-05-29T12:00:14.541Z,98427.94
2023-05-29T12:01:18.160Z,98400.44
2023-05-29T12:02:20.457Z,98431.81
2023-05-29T12:03:22.217Z,98421.88
2023-05-29T12:04:23.910Z,98420.38
2023-05-29T12:05:25.745Z,98419.19
2023-05-29T12:06:38.673Z,98431.09
2023-05-29T12:07:40.449Z,98433.59
2023-05-29T12:08:42.352Z,98428.75
2023-05-29T12:09:43.957Z,98432.59
2023-05-29T12:10:52.927Z,98422.28
2023-05-29T12:12:04.419Z,98418.84
2023-05-29T12:13:06.065Z,98430.00
2023-05-29T12:14:07.635Z,98427.41
2023-05-29T12:15:09.759Z,98419.09
2023-05-29T12:16:11.639Z,98403.09
2023-05-29T12:17:13.288Z,98417.50
2023-05-29T12:18:15.045Z,98427.25
2023-05-29T12:19:16.634Z,98428.31
2023-05-29T12:20:18.672Z,98412.00
2023-05-29T12:21:22.765Z,98426.84